Time;durP1;ratioP1;P1;durP2;ratioP2;P2;SDS_P1;SDS_P2;PMS_P1;PMS_P2;Temp;Humidity;BMP_temperature;BMP_pressure;BME280_temperature;BME280_humidity;BME280_pressure;Samples;Min_cycle;Max_cycle;Signal;HPM_P1;HPM_P2
2023/02/07 00:00:25;;;;;;;28.55;15.55;;;;;;;;;;5069690;28;20124;-77
2023/02/07 00:02:54;;;;;;;28.60;16.40;;;;;;;;;;5074990;28;20059;-78
2023/02/07 00:05:21;;;;;;;28.00;15.85;;;;;;;;;;5075210;28;20036;-76
2023/02/07 00:07:47;;;;;;;32.00;17.52;;;;;;;;;;5074893;28;20127;-76
2023/02/07 00:10:14;;;;;;;31.25;17.20;;;;;;;;;;5064433;28;20455;-76
2023/02/07 00:12:42;;;;;;;28.58;16.60;;;;;;;;;;5058415;28;20624;-75
2023/02/07 00:15:10;;;;;;;29.08;16.95;;;;;;;;;;5077149;28;20052;-77
2023/02/07 00:17:36;;;;;;;27.13;15.82;;;;;;;;;;5077393;28;20041;-76
2023/02/07 00:20:04;;;;;;;25.05;15.10;;;;;;;;;;5065267;28;20091;-77
2023/02/07 00:22:31;;;;;;;27.83;16.52;;;;;;;;;;5058414;28;20056;-78
2023/02/07 00:24:58;;;;;;;26.33;16.20;;;;;;;;;;5057175;28;20099;-76
2023/02/07 00:27:24;;;;;;;28.40;15.55;;;;;;;;;;5054459;28;20455;-75
2023/02/07 00:29:52;;;;;;;22.60;14.27;;;;;;;;;;5063635;28;20076;-77
2023/02/07 00:32:19;;;;;;;25.52;15.18;;;;;;;;;;5076819;28;20098;-74
2023/02/07 00:34:46;;;;;;;25.98;16.58;;;;;;;;;;5074744;28;20132;-77
2023/02/07 00:37:13;;;;;;;26.50;14.60;;;;;;;;;;5060898;28;20088;-79
2023/02/07 00:39:40;;;;;;;23.95;14.75;;;;;;;;;;5056562;28;20114;-76
2023/02/07 00:42:07;;;;;;;26.80;15.07;;;;;;;;;;5060880;28;20132;-76
2023/02/07 00:44:33;;;;;;;27.33;14.48;;;;;;;;;;5074504;28;20048;-78
2023/02/07 00:47:01;;;;;;;23.88;14.98;;;;;;;;;;5080435;28;20048;-77
2023/02/07 00:49:28;;;;;;;31.00;15.25;;;;;;;;;;5074450;28;20422;-76
2023/02/07 00:51:55;;;;;;;27.38;15.40;;;;;;;;;;5066102;28;20072;-76
2023/02/07 00:54:21;;;;;;;28.58;14.32;;;;;;;;;;5073994;28;20559;-75
2023/02/07 00:56:48;;;;;;;32.83;16.25;;;;;;;;;;5073731;28;20521;-74
2023/02/07 00:59:15;;;;;;;27.73;15.65;;;;;;;;;;5057696;28;20118;-77
2023/02/07 01:01:41;;;;;;;26.23;15.75;;;;;;;;;;5061606;28;20071;-76
2023/02/07 01:04:09;;;;;;;29.55;15.02;;;;;;;;;;5070540;28;20048;-77
2023/02/07 01:06:36;;;;;;;28.88;14.68;;;;;;;;;;5074896;28;20442;-76
2023/02/07 01:09:04;;;;;;;30.08;15.30;;;;;;;;;;5074411;28;20127;-75
2023/02/07 01:11:31;;;;;;;28.42;15.50;;;;;;;;;;5073077;28;20072;-76
2023/02/07 01:13:59;;;;;;;27.90;14.35;;;;;;;;;;5072500;28;20072;-77
2023/02/07 01:16:28;;;;;;;28.13;15.73;;;;;;;;;;5094839;28;20080;-74
2023/02/07 01:18:55;;;;;;;24.63;14.40;;;;;;;;;;5088088;28;20083;-77
2023/02/07 01:21:26;;;;;;;28.98;15.15;;;;;;;;;;5081253;28;20049;-77
2023/02/07 01:23:55;;;;;;;26.38;15.90;;;;;;;;;;5080640;28;20040;-75
2023/02/07 01:26:22;;;;;;;25.90;14.80;;;;;;;;;;5072129;28;20056;-75
2023/02/07 01:28:49;;;;;;;26.55;13.98;;;;;;;;;;5057442;28;20441;-75
2023/02/07 01:31:15;;;;;;;25.60;14.13;;;;;;;;;;5055217;28;20044;-75
2023/02/07 01:33:42;;;;;;;29.27;14.30;;;;;;;;;;5068453;28;20040;-76
2023/02/07 01:36:11;;;;;;;28.48;15.10;;;;;;;;;;5056440;28;20479;-75
2023/02/07 01:38:39;;;;;;;27.80;14.77;;;;;;;;;;5034909;28;20041;-74
2023/02/07 01:41:06;;;;;;;26.95;14.75;;;;;;;;;;5033208;28;20045;-76
2023/02/07 01:43:32;;;;;;;29.58;14.80;;;;;;;;;;5059590;28;20068;-76
2023/02/07 01:45:59;;;;;;;26.88;15.00;;;;;;;;;;5073556;28;20104;-76
2023/02/07 01:48:31;;;;;;;25.00;15.23;;;;;;;;;;5060615;28;20128;-75
2023/02/07 01:51:02;;;;;;;28.27;14.88;;;;;;;;;;5053748;28;20087;-77
2023/02/07 01:53:31;;;;;;;23.55;15.02;;;;;;;;;;5061255;28;20040;-77
2023/02/07 01:56:03;;;;;;;27.92;14.77;;;;;;;;;;5073167;28;20573;-76
2023/02/07 01:58:31;;;;;;;25.52;14.35;;;;;;;;;;5073182;28;20046;-76
2023/02/07 02:00:58;;;;;;;25.67;15.40;;;;;;;;;;5072981;28;20072;-76
2023/02/07 02:03:25;;;;;;;29.50;15.05;;;;;;;;;;5068510;28;20480;-76
2023/02/07 02:05:53;;;;;;;26.67;14.82;;;;;;;;;;5072641;28;20059;-76
2023/02/07 02:08:20;;;;;;;27.73;15.02;;;;;;;;;;5073056;28;20045;-76
2023/02/07 02:11:07;;;;;;;30.33;15.77;;;;;;;;;;5072949;28;20051;-76
2023/02/07 02:13:40;;;;;;;27.75;16.65;;;;;;;;;;5062692;28;20076;-76
2023/02/07 02:16:15;;;;;;;23.02;14.43;;;;;;;;;;5055946;28;20144;-76
2023/02/07 02:18:54;;;;;;;23.00;14.98;;;;;;;;;;5053591;28;20095;-76
2023/02/07 02:22:00;;;;;;;24.85;15.45;;;;;;;;;;5052820;28;20488;-76
2023/02/07 02:24:57;;;;;;;27.90;15.10;;;;;;;;;;5057930;28;20559;-75
2023/02/07 02:27:39;;;;;;;25.83;13.68;;;;;;;;;;5032684;28;20053;-75
2023/02/07 02:30:27;;;;;;;30.75;15.38;;;;;;;;;;5032738;28;20122;-75
2023/02/07 02:33:13;;;;;;;21.20;12.60;;;;;;;;;;5031890;28;20128;-77
2023/02/07 02:35:45;;;;;;;25.58;13.82;;;;;;;;;;5071330;28;20044;-75
2023/02/07 02:38:16;;;;;;;29.00;15.57;;;;;;;;;;5074187;28;20127;-77
2023/02/07 02:40:51;;;;;;;25.88;13.95;;;;;;;;;;5068583;28;20044;-75
2023/02/07 02:43:31;;;;;;;27.45;15.00;;;;;;;;;;5062255;28;20511;-77
2023/02/07 02:46:01;;;;;;;29.15;16.10;;;;;;;;;;5060464;28;20045;-77
2023/02/07 02:48:31;;;;;;;23.77;14.90;;;;;;;;;;5052010;28;20080;-76
2023/02/07 02:50:58;;;;;;;28.77;15.10;;;;;;;;;;5052226;28;20274;-76
2023/02/07 02:53:24;;;;;;;25.38;13.52;;;;;;;;;;5055630;28;20067;-77
2023/02/07 02:56:24;;;;;;;25.90;14.63;;;;;;;;;;5065744;28;20052;-75
2023/02/07 02:59:04;;;;;;;25.98;15.02;;;;;;;;;;5060809;28;20049;-75
2023/02/07 03:01:42;;;;;;;24.10;13.73;;;;;;;;;;5051807;28;20053;-76
2023/02/07 03:04:24;;;;;;;26.98;13.48;;;;;;;;;;5051971;28;20136;-75
2023/02/07 03:07:04;;;;;;;27.02;14.07;;;;;;;;;;5061870;28;20136;-76
2023/02/07 03:09:41;;;;;;;28.35;14.00;;;;;;;;;;5071896;28;20086;-76
2023/02/07 03:12:16;;;;;;;27.15;14.10;;;;;;;;;;5071448;28;20127;-77
2023/02/07 03:14:58;;;;;;;26.15;13.77;;;;;;;;;;5040913;28;20071;-77
2023/02/07 03:17:29;;;;;;;28.55;14.30;;;;;;;;;;5057661;28;20081;-76
2023/02/07 03:20:03;;;;;;;28.50;14.65;;;;;;;;;;5052077;28;20049;-76
2023/02/07 03:22:31;;;;;;;24.17;12.85;;;;;;;;;;5055323;28;20542;-76
2023/02/07 03:25:00;;;;;;;23.15;14.02;;;;;;;;;;5055567;28;20051;-75
2023/02/07 03:27:29;;;;;;;24.70;13.60;;;;;;;;;;5068431;28;20071;-76
2023/02/07 03:29:59;;;;;;;25.50;14.50;;;;;;;;;;5075322;28;20048;-75
2023/02/07 03:32:30;;;;;;;24.80;13.70;;;;;;;;;;5075281;28;20162;-76
2023/02/07 03:35:03;;;;;;;24.02;13.68;;;;;;;;;;5075290;28;20060;-77
2023/02/07 03:37:35;;;;;;;24.85;13.98;;;;;;;;;;5063795;28;20049;-77
2023/02/07 03:40:03;;;;;;;27.00;14.15;;;;;;;;;;5055423;28;20103;-76
2023/02/07 03:42:33;;;;;;;23.77;13.82;;;;;;;;;;5057366;28;20056;-76
2023/02/07 03:45:01;;;;;;;26.38;14.82;;;;;;;;;;5064883;28;20083;-76
2023/02/07 03:47:28;;;;;;;24.88;14.50;;;;;;;;;;5055185;28;20053;-76
2023/02/07 03:49:55;;;;;;;27.00;14.73;;;;;;;;;;5055131;28;20081;-76
2023/02/07 03:52:23;;;;;;;24.83;14.32;;;;;;;;;;5065390;28;20045;-76
2023/02/07 03:54:50;;;;;;;24.33;14.80;;;;;;;;;;5071108;28;20064;-77
2023/02/07 03:57:16;;;;;;;28.00;14.52;;;;;;;;;;5074872;28;20223;-76
2023/02/07 03:59:43;;;;;;;22.88;12.85;;;;;;;;;;5074634;28;20044;-76
2023/02/07 04:02:10;;;;;;;25.02;13.95;;;;;;;;;;5068803;28;20041;-75
2023/02/07 04:04:37;;;;;;;27.75;13.98;;;;;;;;;;5073012;28;20106;-76
2023/02/07 04:07:03;;;;;;;25.35;13.02;;;;;;;;;;5074968;28;20166;-76
2023/02/07 04:09:32;;;;;;;25.65;15.57;;;;;;;;;;5074816;28;20097;-76
2023/02/07 04:11:59;;;;;;;25.88;14.02;;;;;;;;;;5073796;28;20127;-76
2023/02/07 04:14:26;;;;;;;26.13;14.35;;;;;;;;;;5062324;28;20053;-76
2023/02/07 04:16:53;;;;;;;25.13;14.65;;;;;;;;;;5054205;28;20051;-76
2023/02/07 04:19:19;;;;;;;23.73;14.60;;;;;;;;;;5054536;28;20056;-76
2023/02/07 04:21:46;;;;;;;24.10;14.00;;;;;;;;;;5054475;28;20122;-76
2023/02/07 04:24:13;;;;;;;27.45;14.82;;;;;;;;;;5062527;28;20048;-77
2023/02/07 04:26:42;;;;;;;26.55;14.50;;;;;;;;;;5054562;28;20102;-76
2023/02/07 04:29:08;;;;;;;23.13;12.90;;;;;;;;;;5054529;28;20088;-76
2023/02/07 04:31:36;;;;;;;23.83;13.40;;;;;;;;;;5054088;28;20140;-75
2023/02/07 04:34:03;;;;;;;24.38;14.35;;;;;;;;;;5055829;28;20059;-76
2023/02/07 04:36:30;;;;;;;22.27;12.80;;;;;;;;;;5074268;28;20052;-77
2023/02/07 04:38:56;;;;;;;29.50;13.50;;;;;;;;;;5074326;28;20044;-76
2023/02/07 04:41:23;;;;;;;24.90;13.00;;;;;;;;;;5074253;28;20558;-77
2023/02/07 04:43:51;;;;;;;23.65;13.68;;;;;;;;;;5069204;28;20041;-76
2023/02/07 04:46:18;;;;;;;22.45;13.25;;;;;;;;;;5071886;28;20094;-76
2023/02/07 04:48:47;;;;;;;24.88;14.10;;;;;;;;;;5074527;28;20131;-76
2023/02/07 04:51:14;;;;;;;22.20;12.73;;;;;;;;;;5070468;28;20132;-77
2023/02/07 04:53:40;;;;;;;24.80;13.45;;;;;;;;;;5070232;28;20056;-77
2023/02/07 04:56:07;;;;;;;24.42;12.52;;;;;;;;;;5074467;28;20075;-76
2023/02/07 04:58:34;;;;;;;23.55;12.88;;;;;;;;;;5074801;28;20044;-76
2023/02/07 05:01:02;;;;;;;24.58;13.70;;;;;;;;;;5076526;28;20106;-77
2023/02/07 05:03:28;;;;;;;24.98;13.63;;;;;;;;;;5061146;28;20132;-76
2023/02/07 05:05:55;;;;;;;26.50;14.25;;;;;;;;;;5074552;28;20072;-76
2023/02/07 05:08:22;;;;;;;27.83;14.05;;;;;;;;;;5082192;28;20048;-74
2023/02/07 05:10:52;;;;;;;24.60;13.55;;;;;;;;;;5075022;28;20087;-75
2023/02/07 05:13:19;;;;;;;24.17;13.80;;;;;;;;;;5068137;28;20131;-74
2023/02/07 05:15:45;;;;;;;23.00;12.70;;;;;;;;;;5072563;28;20090;-76
2023/02/07 05:18:13;;;;;;;24.75;13.60;;;;;;;;;;5077943;28;20577;-77
2023/02/07 05:20:40;;;;;;;28.02;14.68;;;;;;;;;;5079106;28;20079;-76
2023/02/07 05:23:07;;;;;;;26.75;14.40;;;;;;;;;;5069276;28;20083;-76
2023/02/07 05:25:34;;;;;;;24.25;14.25;;;;;;;;;;5070517;28;20159;-76
2023/02/07 05:28:00;;;;;;;25.10;13.00;;;;;;;;;;5055751;28;20102;-75
2023/02/07 05:30:27;;;;;;;20.33;13.02;;;;;;;;;;5056659;28;20091;-75
2023/02/07 05:33:05;;;;;;;23.95;13.13;;;;;;;;;;5057435;28;20076;-75
2023/02/07 05:35:35;;;;;;;24.33;13.20;;;;;;;;;;5062398;28;20427;-75
2023/02/07 05:38:03;;;;;;;23.10;12.50;;;;;;;;;;5061491;28;20041;-75
2023/02/07 05:40:30;;;;;;;24.90;12.52;;;;;;;;;;5061961;28;20109;-75
2023/02/07 05:42:56;;;;;;;22.25;12.40;;;;;;;;;;5070183;28;20057;-75
2023/02/07 05:45:23;;;;;;;22.25;12.48;;;;;;;;;;5084549;28;20078;-75
2023/02/07 05:47:50;;;;;;;24.45;12.88;;;;;;;;;;5090141;28;20037;-76
2023/02/07 05:50:17;;;;;;;23.65;12.52;;;;;;;;;;5090164;28;20041;-75
2023/02/07 05:52:45;;;;;;;22.48;12.45;;;;;;;;;;5092088;28;20053;-75
2023/02/07 05:55:13;;;;;;;22.15;13.48;;;;;;;;;;5095064;28;20071;-76
2023/02/07 05:57:41;;;;;;;22.20;12.40;;;;;;;;;;5088079;28;20526;-75
2023/02/07 06:00:11;;;;;;;27.13;15.48;;;;;;;;;;5081763;28;20083;-76
2023/02/07 06:02:38;;;;;;;26.70;14.20;;;;;;;;;;5078809;28;20045;-73
2023/02/07 06:05:07;;;;;;;27.98;13.85;;;;;;;;;;5070993;28;20286;-74
2023/02/07 06:07:34;;;;;;;26.58;13.98;;;;;;;;;;5078101;28;20553;-76
2023/02/07 06:10:02;;;;;;;21.33;11.65;;;;;;;;;;5078712;28;20325;-74
2023/02/07 06:12:28;;;;;;;26.23;13.45;;;;;;;;;;5076663;28;20110;-74
2023/02/07 06:14:55;;;;;;;25.20;13.40;;;;;;;;;;5063490;28;20076;-75
2023/02/07 06:17:22;;;;;;;21.23;12.80;;;;;;;;;;5070172;28;20094;-75
2023/02/07 06:19:48;;;;;;;26.02;13.35;;;;;;;;;;5073690;28;20087;-75
2023/02/07 06:22:15;;;;;;;22.52;13.32;;;;;;;;;;5074527;28;20083;-74
2023/02/07 06:24:42;;;;;;;24.27;13.50;;;;;;;;;;5067214;28;20080;-75
2023/02/07 06:27:11;;;;;;;26.77;13.32;;;;;;;;;;5053375;28;20091;-76
2023/02/07 06:29:38;;;;;;;26.60;13.20;;;;;;;;;;5053513;28;20095;-75
2023/02/07 06:32:05;;;;;;;24.88;12.82;;;;;;;;;;5053486;28;20076;-75
2023/02/07 06:34:31;;;;;;;22.58;12.80;;;;;;;;;;5054766;28;20080;-76
2023/02/07 06:36:58;;;;;;;23.23;11.85;;;;;;;;;;5073392;28;20080;-76
2023/02/07 06:39:25;;;;;;;29.48;12.85;;;;;;;;;;5074152;28;20483;-75
2023/02/07 06:41:52;;;;;;;22.52;10.70;;;;;;;;;;5072946;28;20071;-75
2023/02/07 06:44:20;;;;;;;27.95;12.77;;;;;;;;;;5055302;28;20084;-75
2023/02/07 06:46:47;;;;;;;23.42;12.73;;;;;;;;;;5053965;28;20106;-75
2023/02/07 06:49:13;;;;;;;30.00;13.30;;;;;;;;;;5052812;28;20566;-75
2023/02/07 06:51:40;;;;;;;24.45;12.50;;;;;;;;;;5053053;28;20048;-75
2023/02/07 06:54:08;;;;;;;22.77;11.95;;;;;;;;;;5056361;28;20132;-75
2023/02/07 06:56:36;;;;;;;22.27;11.95;;;;;;;;;;5072478;28;20048;-75
2023/02/07 06:59:03;;;;;;;24.08;12.05;;;;;;;;;;5074344;28;20131;-75
2023/02/07 07:01:31;;;;;;;19.73;11.75;;;;;;;;;;5072974;28;20147;-76
2023/02/07 07:03:59;;;;;;;23.17;12.07;;;;;;;;;;5072508;28;20489;-76
2023/02/07 07:06:26;;;;;;;21.88;12.00;;;;;;;;;;5048773;28;20063;-78
2023/02/07 07:08:52;;;;;;;20.55;11.55;;;;;;;;;;5052662;28;20053;-77
2023/02/07 07:11:19;;;;;;;22.10;11.88;;;;;;;;;;5053172;28;20041;-77
2023/02/07 07:13:46;;;;;;;21.88;12.27;;;;;;;;;;5052014;28;20265;-76
2023/02/07 07:16:13;;;;;;;23.02;12.50;;;;;;;;;;5053724;28;20129;-76
2023/02/07 07:18:41;;;;;;;20.98;11.27;;;;;;;;;;5052128;28;20137;-76
2023/02/07 07:21:10;;;;;;;21.20;10.68;;;;;;;;;;5052128;28;20132;-75
2023/02/07 07:23:37;;;;;;;21.88;11.95;;;;;;;;;;5052080;28;20091;-75
2023/02/07 07:26:04;;;;;;;24.48;11.73;;;;;;;;;;5060368;28;20565;-76
2023/02/07 07:28:31;;;;;;;25.73;12.25;;;;;;;;;;5072204;28;20384;-75
2023/02/07 07:31:03;;;;;;;20.55;11.32;;;;;;;;;;5072476;28;20136;-75
2023/02/07 07:33:29;;;;;;;25.80;12.25;;;;;;;;;;5072293;28;20056;-75
2023/02/07 07:35:59;;;;;;;22.98;12.60;;;;;;;;;;5070443;28;20135;-76
2023/02/07 07:38:26;;;;;;;25.05;11.68;;;;;;;;;;5072025;28;20080;-75
2023/02/07 07:40:53;;;;;;;20.98;11.60;;;;;;;;;;5072512;28;20072;-75
2023/02/07 07:43:20;;;;;;;20.60;11.45;;;;;;;;;;5070397;28;20041;-75
2023/02/07 07:45:52;;;;;;;22.33;12.45;;;;;;;;;;5060069;28;20045;-74
2023/02/07 07:48:18;;;;;;;28.63;11.10;;;;;;;;;;5056116;28;20053;-75
2023/02/07 07:50:45;;;;;;;23.05;12.23;;;;;;;;;;5072314;28;20545;-75
2023/02/07 07:53:13;;;;;;;24.02;11.73;;;;;;;;;;5074757;22;20040;-77
2023/02/07 07:55:40;;;;;;;23.88;12.68;;;;;;;;;;5053605;28;20049;-76
2023/02/07 07:58:07;;;;;;;23.65;12.65;;;;;;;;;;5056284;28;20076;-77
2023/02/07 08:00:33;;;;;;;24.85;13.35;;;;;;;;;;5071828;28;20052;-77
2023/02/07 08:03:00;;;;;;;21.42;11.40;;;;;;;;;;5063182;28;20629;-76
2023/02/07 08:05:27;;;;;;;27.75;14.73;;;;;;;;;;5045085;28;20119;-77
2023/02/07 08:07:53;;;;;;;22.75;12.85;;;;;;;;;;5040692;28;20076;-77
2023/02/07 08:10:21;;;;;;;26.30;13.35;;;;;;;;;;5062326;28;20163;-77
2023/02/07 08:12:48;;;;;;;28.17;14.85;;;;;;;;;;5070273;28;20119;-77
2023/02/07 08:15:15;;;;;;;25.10;13.68;;;;;;;;;;5057803;28;20046;-81
2023/02/07 08:17:42;;;;;;;27.83;14.05;;;;;;;;;;5058159;28;20076;-80
2023/02/07 08:20:11;;;;;;;31.35;15.18;;;;;;;;;;5061540;28;20105;-81
2023/02/07 08:22:37;;;;;;;29.77;14.45;;;;;;;;;;5057535;28;20053;-81
2023/02/07 08:25:05;;;;;;;28.55;14.60;;;;;;;;;;5060568;28;20076;-78
2023/02/07 08:27:33;;;;;;;24.63;13.15;;;;;;;;;;5055771;28;20048;-76
2023/02/07 08:30:00;;;;;;;30.40;14.55;;;;;;;;;;5044963;28;20633;-76
2023/02/07 08:32:27;;;;;;;26.77;14.25;;;;;;;;;;5058657;28;20049;-73
2023/02/07 08:34:54;;;;;;;24.77;14.00;;;;;;;;;;5052542;28;20064;-74
2023/02/07 08:37:21;;;;;;;27.48;14.57;;;;;;;;;;5051761;28;20045;-73
2023/02/07 08:39:51;;;;;;;26.48;13.98;;;;;;;;;;5052501;28;20403;-74
2023/02/07 08:42:19;;;;;;;27.33;15.73;;;;;;;;;;5052319;28;20519;-75
2023/02/07 08:44:48;;;;;;;25.75;13.98;;;;;;;;;;5053029;28;20289;-74
2023/02/07 08:47:15;;;;;;;27.75;14.48;;;;;;;;;;5060982;28;20483;-74
2023/02/07 08:49:42;;;;;;;24.38;13.70;;;;;;;;;;5069040;28;20049;-77
2023/02/07 08:52:10;;;;;;;22.98;13.20;;;;;;;;;;5044800;28;21402;-75
2023/02/07 08:54:37;;;;;;;26.67;14.25;;;;;;;;;;5051420;28;20064;-74
2023/02/07 08:57:04;;;;;;;25.10;14.30;;;;;;;;;;5037092;28;20041;-72
2023/02/07 08:59:30;;;;;;;27.20;14.75;;;;;;;;;;5037372;28;20087;-74
2023/02/07 09:01:58;;;;;;;35.92;15.95;;;;;;;;;;5051176;28;20068;-74
2023/02/07 09:04:25;;;;;;;26.25;15.18;;;;;;;;;;5051762;28;20124;-73
2023/02/07 09:06:52;;;;;;;27.15;14.05;;;;;;;;;;5051343;28;20056;-73
2023/02/07 09:09:19;;;;;;;33.75;14.73;;;;;;;;;;5051912;28;20055;-73
2023/02/07 09:11:45;;;;;;;27.27;14.30;;;;;;;;;;5051238;28;20052;-74
2023/02/07 09:14:12;;;;;;;35.33;16.15;;;;;;;;;;5052119;28;20182;-72
2023/02/07 09:16:38;;;;;;;28.23;15.07;;;;;;;;;;5051235;28;20049;-72
2023/02/07 09:19:06;;;;;;;26.55;14.40;;;;;;;;;;5050572;28;20578;-74
2023/02/07 09:21:33;;;;;;;33.38;16.75;;;;;;;;;;5051278;28;20077;-74
2023/02/07 09:24:00;;;;;;;30.83;15.63;;;;;;;;;;5051604;28;20076;-74
2023/02/07 09:26:26;;;;;;;29.17;15.45;;;;;;;;;;5051222;28;20081;-72
2023/02/07 09:28:53;;;;;;;27.65;15.60;;;;;;;;;;5051166;28;20049;-74
2023/02/07 09:31:20;;;;;;;34.30;16.35;;;;;;;;;;5050937;28;20080;-76
2023/02/07 09:33:47;;;;;;;29.30;15.70;;;;;;;;;;5051114;28;20092;-74
2023/02/07 09:36:20;;;;;;;27.20;15.55;;;;;;;;;;5051640;28;20071;-73
2023/02/07 09:38:47;;;;;;;32.83;16.98;;;;;;;;;;5055003;28;20127;-74
2023/02/07 09:41:21;;;;;;;32.17;15.10;;;;;;;;;;5071245;28;20138;-73
2023/02/07 09:43:56;;;;;;;32.90;15.60;;;;;;;;;;5070611;28;20045;-74
2023/02/07 09:46:30;;;;;;;28.85;15.65;;;;;;;;;;5070035;28;20105;-74
2023/02/07 09:49:04;;;;;;;37.40;15.85;;;;;;;;;;5050978;28;20125;-74
2023/02/07 09:51:34;;;;;;;33.47;15.38;;;;;;;;;;5050664;28;20526;-73
2023/02/07 09:54:03;;;;;;;32.13;15.63;;;;;;;;;;5050878;28;20128;-74
2023/02/07 09:56:32;;;;;;;36.97;16.65;;;;;;;;;;5050413;28;20045;-73
2023/02/07 09:59:05;;;;;;;43.22;17.40;;;;;;;;;;5050730;28;20040;-74
2023/02/07 10:01:35;;;;;;;38.97;17.50;;;;;;;;;;5050499;28;20051;-72
2023/02/07 10:04:26;;;;;;;34.40;15.40;;;;;;;;;;5050617;28;20070;-73
2023/02/07 10:06:56;;;;;;;32.50;16.05;;;;;;;;;;5050744;28;20060;-74
2023/02/07 10:09:25;;;;;;;29.65;15.07;;;;;;;;;;5051338;28;20057;-74
2023/02/07 10:11:57;;;;;;;32.60;15.77;;;;;;;;;;5050714;28;20136;-74
2023/02/07 10:14:49;;;;;;;31.30;16.17;;;;;;;;;;5051230;28;20079;-73
2023/02/07 10:17:32;;;;;;;32.45;15.43;;;;;;;;;;5050322;28;20140;-73
2023/02/07 10:20:06;;;;;;;30.25;14.43;;;;;;;;;;5050444;28;20045;-76
2023/02/07 10:22:45;;;;;;;35.58;15.90;;;;;;;;;;5036442;28;20112;-73
2023/02/07 10:25:24;;;;;;;35.33;15.63;;;;;;;;;;5030783;28;20129;-73
2023/02/07 10:28:01;;;;;;;27.75;15.88;;;;;;;;;;5030128;28;20128;-75
2023/02/07 10:30:30;;;;;;;36.70;16.20;;;;;;;;;;5029542;28;20464;-73
2023/02/07 10:33:02;;;;;;;32.88;15.70;;;;;;;;;;5029982;28;20049;-74
2023/02/07 10:35:34;;;;;;;23.50;13.93;;;;;;;;;;5030350;28;20737;-73
2023/02/07 10:38:02;;;;;;;39.60;17.10;;;;;;;;;;5029798;28;20069;-74
2023/02/07 10:40:34;;;;;;;38.55;15.32;;;;;;;;;;5030196;28;20419;-72
2023/02/07 10:43:05;;;;;;;33.97;15.27;;;;;;;;;;5030202;28;20080;-73
2023/02/07 10:45:32;;;;;;;30.95;14.60;;;;;;;;;;5030409;28;20054;-74
2023/02/07 10:47:59;;;;;;;27.38;14.43;;;;;;;;;;5029877;28;20046;-72
2023/02/07 10:50:27;;;;;;;29.02;14.32;;;;;;;;;;5029996;28;20140;-74
2023/02/07 10:52:55;;;;;;;31.48;14.23;;;;;;;;;;5029861;28;20140;-75
2023/02/07 10:55:39;;;;;;;29.90;14.02;;;;;;;;;;5030302;28;20045;-74
2023/02/07 10:58:05;;;;;;;24.48;14.00;;;;;;;;;;5030345;28;20045;-74
2023/02/07 11:00:33;;;;;;;27.92;14.20;;;;;;;;;;5030395;28;20148;-75
2023/02/07 11:03:05;;;;;;;26.35;12.93;;;;;;;;;;5044406;28;20052;-74
2023/02/07 11:05:53;;;;;;;28.58;13.43;;;;;;;;;;5037521;28;20048;-75
2023/02/07 11:08:23;;;;;;;26.15;13.80;;;;;;;;;;5049910;28;20045;-74
2023/02/07 11:10:52;;;;;;;35.28;14.93;;;;;;;;;;5050022;28;20064;-73
2023/02/07 11:13:22;;;;;;;33.80;14.02;;;;;;;;;;5049582;28;20132;-75
2023/02/07 11:15:58;;;;;;;29.52;15.38;;;;;;;;;;5050183;28;20055;-76
2023/02/07 11:21:48;;;;;;;;;;;;;;;;;;5046256;28;20071;-77
2023/02/07 11:24:16;;;;;;;26.92;12.15;;;;;;;;;;5051170;28;19920;-77
2023/02/07 11:26:57;;;;;;;28.65;13.77;;;;;;;;;;5050904;28;20091;-76
2023/02/07 11:29:25;;;;;;;26.60;12.23;;;;;;;;;;5052166;28;20381;-78
2023/02/07 11:31:55;;;;;;;24.98;12.30;;;;;;;;;;5051684;28;20049;-78
2023/02/07 11:34:37;;;;;;;28.90;12.38;;;;;;;;;;5054464;28;20087;-76
2023/02/07 11:37:23;;;;;;;29.10;13.90;;;;;;;;;;5052257;28;20067;-76
2023/02/07 11:39:51;;;;;;;22.55;12.15;;;;;;;;;;5052756;28;20128;-77
2023/02/07 11:42:21;;;;;;;22.92;12.35;;;;;;;;;;5052920;28;20076;-76
2023/02/07 11:44:49;;;;;;;21.88;12.20;;;;;;;;;;5056150;28;20041;-76
2023/02/07 11:47:20;;;;;;;22.73;12.40;;;;;;;;;;5070762;28;20056;-77
2023/02/07 11:49:51;;;;;;;22.33;12.20;;;;;;;;;;5083075;28;20106;-76
2023/02/07 11:52:18;;;;;;;25.02;12.23;;;;;;;;;;5081825;28;20051;-75
2023/02/07 11:54:52;;;;;;;25.58;12.40;;;;;;;;;;5079539;28;20049;-76
2023/02/07 11:57:22;;;;;;;21.35;10.73;;;;;;;;;;5079449;28;20075;-75
2023/02/07 12:00:00;;;;;;;19.80;10.60;;;;;;;;;;5081616;28;20037;-77
2023/02/07 12:02:29;;;;;;;20.90;11.10;;;;;;;;;;5082095;28;20504;-77
2023/02/07 12:05:10;;;;;;;30.05;12.32;;;;;;;;;;5083787;28;20045;-78
2023/02/07 12:07:42;;;;;;;21.58;10.52;;;;;;;;;;5083978;28;20647;-76
2023/02/07 12:10:15;;;;;;;21.40;10.77;;;;;;;;;;5088566;28;20052;-76
2023/02/07 12:12:46;;;;;;;23.42;10.55;;;;;;;;;;5082856;28;20104;-77
2023/02/07 12:15:17;;;;;;;19.17;10.10;;;;;;;;;;5084285;28;20041;-78
2023/02/07 12:17:59;;;;;;;19.17;9.73;;;;;;;;;;5086086;28;20140;-78
2023/02/07 12:20:28;;;;;;;19.38;10.40;;;;;;;;;;5079096;28;20055;-77
2023/02/07 12:23:03;;;;;;;20.55;10.02;;;;;;;;;;5077751;28;20075;-77
2023/02/07 12:25:36;;;;;;;17.80;9.43;;;;;;;;;;5079088;28;20068;-77
2023/02/07 12:28:14;;;;;;;22.70;9.90;;;;;;;;;;5077252;28;20087;-78
2023/02/07 12:30:44;;;;;;;18.50;10.18;;;;;;;;;;5077360;28;20048;-78
2023/02/07 12:33:19;;;;;;;19.35;10.02;;;;;;;;;;5076361;28;20128;-78
2023/02/07 12:35:52;;;;;;;18.23;8.75;;;;;;;;;;5077640;28;20512;-76
2023/02/07 12:38:24;;;;;;;19.58;10.43;;;;;;;;;;5077538;28;20074;-77
2023/02/07 12:40:54;;;;;;;20.17;9.10;;;;;;;;;;5078673;28;20041;-77
2023/02/07 12:43:25;;;;;;;23.52;9.65;;;;;;;;;;5087664;28;20048;-77
2023/02/07 12:46:04;;;;;;;19.13;8.68;;;;;;;;;;5091128;28;20044;-76
2023/02/07 12:48:47;;;;;;;18.60;8.57;;;;;;;;;;5076241;28;20071;-79
2023/02/07 12:51:23;;;;;;;18.00;8.98;;;;;;;;;;5061638;28;20133;-77
2023/02/07 12:54:06;;;;;;;15.43;7.53;;;;;;;;;;5053232;28;20084;-76
2023/02/07 12:56:45;;;;;;;16.70;9.20;;;;;;;;;;5054028;28;20044;-77
2023/02/07 12:59:24;;;;;;;19.77;9.23;;;;;;;;;;5055007;28;20128;-77
2023/02/07 13:02:02;;;;;;;17.20;8.00;;;;;;;;;;5053938;28;20603;-76
2023/02/07 13:04:46;;;;;;;21.45;9.27;;;;;;;;;;5053950;28;20400;-77
2023/02/07 13:07:33;;;;;;;17.20;8.05;;;;;;;;;;5034513;28;20042;-79
2023/02/07 13:10:09;;;;;;;20.77;9.18;;;;;;;;;;5034151;28;20095;-77
2023/02/07 13:12:44;;;;;;;17.45;8.35;;;;;;;;;;5033583;28;20087;-78
2023/02/07 13:15:23;;;;;;;17.30;9.15;;;;;;;;;;5032958;28;20046;-77
2023/02/07 13:17:58;;;;;;;20.23;8.82;;;;;;;;;;5034058;28;20076;-78
2023/02/07 13:20:37;;;;;;;19.63;8.75;;;;;;;;;;5042146;28;20127;-77
2023/02/07 13:23:10;;;;;;;20.05;9.55;;;;;;;;;;5053493;28;20041;-78
2023/02/07 13:25:40;;;;;;;21.08;9.70;;;;;;;;;;5053256;28;20132;-78
2023/02/07 13:28:13;;;;;;;19.13;9.73;;;;;;;;;;5053749;28;20051;-82
2023/02/07 13:30:41;;;;;;;18.90;9.10;;;;;;;;;;5046006;28;20198;-76
2023/02/07 13:33:25;;;;;;;17.88;8.75;;;;;;;;;;5031273;28;20072;-77
2023/02/07 13:35:54;;;;;;;19.50;10.13;;;;;;;;;;5052382;28;20529;-76
2023/02/07 13:38:35;;;;;;;19.15;9.55;;;;;;;;;;5062857;28;20073;-78
2023/02/07 13:41:10;;;;;;;21.52;9.93;;;;;;;;;;5043847;28;20045;-78
2023/02/07 13:43:51;;;;;;;16.55;9.35;;;;;;;;;;5035536;28;20071;-76
2023/02/07 13:46:36;;;;;;;24.17;9.80;;;;;;;;;;5042714;28;20731;-77
2023/02/07 13:49:15;;;;;;;19.15;9.98;;;;;;;;;;5048702;28;20048;-77
2023/02/07 13:51:51;;;;;;;20.02;9.50;;;;;;;;;;5042299;28;20052;-77
2023/02/07 13:54:30;;;;;;;19.30;9.75;;;;;;;;;;5039767;28;20120;-76
2023/02/07 14:00:04;;;;;;;23.17;11.57;;;;;;;;;;5032981;28;20056;-78
2023/02/07 14:02:40;;;;;;;21.58;10.15;;;;;;;;;;5045304;28;20041;-78
2023/02/07 14:05:09;;;;;;;21.08;10.48;;;;;;;;;;5044347;28;20052;-77
2023/02/07 14:07:38;;;;;;;18.42;10.20;;;;;;;;;;5052233;28;20052;-76
2023/02/07 14:10:07;;;;;;;22.42;11.00;;;;;;;;;;5046508;28;20075;-78
2023/02/07 14:12:38;;;;;;;22.40;11.70;;;;;;;;;;5031515;28;20056;-78
2023/02/07 14:15:47;;;;;;;18.38;9.65;;;;;;;;;;5032499;28;20107;-76
2023/02/07 14:18:39;;;;;;;20.42;10.27;;;;;;;;;;5039227;28;20082;-76
2023/02/07 14:21:20;;;;;;;20.00;10.13;;;;;;;;;;5046386;28;20756;-79
2023/02/07 14:23:58;;;;;;;19.33;9.93;;;;;;;;;;5037889;28;20045;-80
2023/02/07 14:27:06;;;;;;;19.38;9.85;;;;;;;;;;5049351;28;20615;-80
2023/02/07 14:29:54;;;;;;;22.83;10.57;;;;;;;;;;5033402;28;20087;-80
2023/02/07 14:32:46;;;;;;;21.50;9.60;;;;;;;;;;5038063;28;20053;-78
2023/02/07 14:35:33;;;;;;;21.90;10.15;;;;;;;;;;5038517;28;20088;-79
2023/02/07 14:38:08;;;;;;;22.75;9.95;;;;;;;;;;5033745;28;20504;-78
2023/02/07 14:40:52;;;;;;;21.27;10.00;;;;;;;;;;5038380;28;20055;-78
2023/02/07 14:43:24;;;;;;;20.73;9.93;;;;;;;;;;5050540;28;20048;-77
2023/02/07 14:46:04;;;;;;;23.23;9.50;;;;;;;;;;5050155;28;20136;-78